aviador You're here:

KQDG Decoded Metar

ADANA/INCIRLIK in USA-MIL
Report Time2017-06-25 13:21:00
UTC Time2017-06-25 14:00:31
Flight Rules mvfr MVFR
WindCalm
Visibility8000 m
Phenomena:N/A
Clouds:Overcast 019 Hf
Expected CloudBase > 400 ft AGL from Temp-Dew spread
Ceiling1,900 ft
Temp16°C (ISA +1)
Dew Point15°C (94% RH)
QNH1002 hPa
Density Alt1,017 ft
Elevation240 ft
Report Wrong Elevation
Raw Report
SPECI KQDG 251321Z AUTO 00000KT 8000 M OVC019 16/15 A2960 RMK AO2 SLP025
PWINO $=

Extra information for KQDG:More info

Metar Taf Metar & Taf Last 4 Metars F.Rules Stats Wind Profile Meteogram Temp Stats Airport Information Weather charts Add Link Nearby VenuesMetar ALERT Operation Metar Decoded Social comments